createdAt,value
2023-02-04T00:00:19.630Z,45.51
2023-02-04T00:01:22.491Z,45.45
2023-02-04T00:02:26.554Z,46.04
2023-02-04T00:03:29.442Z,46.26
2023-02-04T00:04:33.280Z,45.80
2023-02-04T00:05:36.392Z,47.41
2023-02-04T00:06:41.046Z,48.62
2023-02-04T00:07:44.249Z,47.11
2023-02-04T00:08:47.850Z,46.72
2023-02-04T00:09:50.240Z,48.02
2023-02-04T00:10:53.808Z,46.63
2023-02-04T00:11:56.557Z,47.34
2023-02-04T00:13:00.604Z,46.91
2023-02-04T00:14:05.048Z,46.97
2023-02-04T00:15:10.977Z,48.06
2023-02-04T00:16:14.129Z,49.11
2023-02-04T00:17:17.741Z,49.93
2023-02-04T00:18:22.025Z,49.63
2023-02-04T00:19:25.701Z,50.30
2023-02-04T00:20:28.919Z,49.50
2023-02-04T00:21:32.681Z,49.06
2023-02-04T00:22:35.247Z,48.45
2023-02-04T00:23:39.607Z,48.73
2023-02-04T00:24:43.174Z,47.59
2023-02-04T00:25:47.031Z,48.47
2023-02-04T00:26:49.688Z,47.37
2023-02-04T00:27:53.632Z,47.36
2023-02-04T00:28:56.620Z,49.45
2023-02-04T00:30:01.778Z,48.68
2023-02-04T00:31:04.810Z,47.67
2023-02-04T00:32:08.363Z,47.92
2023-02-04T00:33:10.949Z,47.38
2023-02-04T00:34:15.086Z,48.10
2023-02-04T00:35:18.235Z,48.31
2023-02-04T00:36:22.026Z,48.17
2023-02-04T00:37:24.785Z,47.68
2023-02-04T00:38:28.362Z,48.20
2023-02-04T00:39:30.741Z,49.56
2023-02-04T00:40:34.252Z,50.16
2023-02-04T00:41:36.644Z,49.88
2023-02-04T00:42:40.299Z,50.02
2023-02-04T00:43:43.195Z,48.88
2023-02-04T00:44:47.074Z,48.34
2023-02-04T00:45:51.027Z,48.34
2023-02-04T00:46:54.752Z,47.72
2023-02-04T00:47:57.580Z,48.25
2023-02-04T00:49:01.133Z,47.09
2023-02-04T00:50:05.080Z,47.50
2023-02-04T00:51:08.044Z,47.68
2023-02-04T00:52:12.089Z,47.94
2023-02-04T00:53:15.221Z,48.55
2023-02-04T00:54:19.293Z,49.39
2023-02-04T00:55:22.153Z,48.62
2023-02-04T00:56:25.744Z,48.56
2023-02-04T00:57:28.387Z,49.05
2023-02-04T00:58:32.172Z,47.84
2023-02-04T00:59:35.024Z,48.25
2023-02-04T01:00:38.840Z,47.89
2023-02-04T01:01:43.182Z,47.21
2023-02-04T01:02:46.955Z,47.79
2023-02-04T01:03:49.749Z,48.95
2023-02-04T01:04:53.552Z,48.74
2023-02-04T01:05:55.944Z,49.59
2023-02-04T01:06:59.800Z,49.52
2023-02-04T01:08:02.991Z,50.28
2023-02-04T01:09:06.625Z,49.53
2023-02-04T01:10:09.816Z,49.03
2023-02-04T01:11:14.509Z,49.59
2023-02-04T01:12:17.104Z,49.99
2023-02-04T01:13:20.924Z,50.00
2023-02-04T01:14:23.519Z,48.73
2023-02-04T01:15:26.896Z,49.22
2023-02-04T01:16:29.451Z,49.62
2023-02-04T01:17:34.785Z,49.30
2023-02-04T01:18:37.396Z,49.26
2023-02-04T01:19:41.371Z,49.13
2023-02-04T01:20:44.498Z,49.81
2023-02-04T01:21:48.285Z,49.65
2023-02-04T01:22:50.880Z,49.04
2023-02-04T01:23:54.500Z,48.43
2023-02-04T01:24:56.930Z,49.38
2023-02-04T01:26:00.447Z,48.90
2023-02-04T01:27:03.117Z,47.88
2023-02-04T01:28:06.898Z,47.57
2023-02-04T01:29:10.100Z,46.60
2023-02-04T01:30:15.727Z,46.92
2023-02-04T01:31:18.533Z,46.79
2023-02-04T01:32:22.123Z,46.92
2023-02-04T01:33:26.557Z,47.64
2023-02-04T01:34:31.666Z,47.63
2023-02-04T01:35:34.031Z,47.52
2023-02-04T01:36:37.484Z,47.47
2023-02-04T01:37:39.936Z,47.51
2023-02-04T01:38:44.311Z,49.19
2023-02-04T01:39:47.596Z,47.69
2023-02-04T01:40:51.281Z,47.55
2023-02-04T01:41:53.924Z,47.53
2023-02-04T01:42:58.042Z,47.53
2023-02-04T01:44:00.967Z,46.53
2023-02-04T01:45:06.421Z,45.96
2023-02-04T01:46:09.427Z,44.91
2023-02-04T01:47:13.438Z,44.81
2023-02-04T01:48:20.574Z,44.98
2023-02-04T01:49:26.173Z,46.72
2023-02-04T01:50:29.360Z,45.38
2023-02-04T01:51:33.147Z,46.73
2023-02-04T01:52:38.834Z,45.92
2023-02-04T01:53:43.247Z,45.12
2023-02-04T01:54:45.702Z,45.21
2023-02-04T01:55:49.703Z,46.73
2023-02-04T01:56:52.858Z,46.32
2023-02-04T01:57:59.136Z,46.11
2023-02-04T01:59:02.095Z,45.69
2023-02-04T02:00:08.340Z,45.19
2023-02-04T02:01:13.714Z,44.42
2023-02-04T02:02:41.855Z,44.88
2023-02-04T02:03:44.582Z,44.60
2023-02-04T02:04:49.766Z,44.37
2023-02-04T02:05:54.536Z,45.28
2023-02-04T02:07:02.134Z,45.42
2023-02-04T02:08:06.952Z,46.17
2023-02-04T02:09:10.638Z,46.97
2023-02-04T02:10:15.411Z,47.46
2023-02-04T02:11:18.114Z,48.05
2023-02-04T02:12:21.843Z,48.18
2023-02-04T02:13:24.232Z,49.14
2023-02-04T02:14:27.674Z,48.35
2023-02-04T02:15:30.317Z,48.44
2023-02-04T02:16:34.129Z,48.07
2023-02-04T02:17:37.512Z,48.42
2023-02-04T02:18:40.956Z,49.01
2023-02-04T02:19:43.887Z,48.50
2023-02-04T02:20:49.123Z,48.73
2023-02-04T02:21:59.127Z,48.80
2023-02-04T02:23:07.863Z,48.98
2023-02-04T02:24:26.501Z,48.53
2023-02-04T02:25:31.030Z,49.37
2023-02-04T02:26:34.272Z,48.60
2023-02-04T02:27:38.314Z,48.82
2023-02-04T02:28:41.378Z,48.63
2023-02-04T02:29:45.116Z,48.74
2023-02-04T02:30:49.777Z,48.31
2023-02-04T02:31:54.064Z,49.27
2023-02-04T02:32:57.746Z,48.55
2023-02-04T02:34:01.619Z,49.11
2023-02-04T02:35:05.728Z,48.06
2023-02-04T02:36:09.996Z,47.77
2023-02-04T02:37:13.736Z,48.53
2023-02-04T02:38:18.804Z,47.02
2023-02-04T02:39:23.223Z,46.75
2023-02-04T02:40:27.038Z,48.14
2023-02-04T02:41:29.390Z,46.82
2023-02-04T02:42:34.019Z,46.96
2023-02-04T02:43:38.197Z,47.90
2023-02-04T02:44:42.301Z,47.54
2023-02-04T02:45:45.804Z,47.63
2023-02-04T02:46:49.778Z,47.46
2023-02-04T02:47:53.622Z,47.82
2023-02-04T02:48:57.645Z,47.45
2023-02-04T02:50:00.597Z,46.67
2023-02-04T02:51:04.577Z,48.22
2023-02-04T02:52:08.464Z,46.54
2023-02-04T02:53:12.412Z,45.62
2023-02-04T02:54:24.397Z,45.52
2023-02-04T02:55:30.305Z,45.50
2023-02-04T02:56:33.380Z,46.83
2023-02-04T02:57:37.070Z,45.81
2023-02-04T02:58:39.988Z,45.45
2023-02-04T02:59:43.783Z,45.63
2023-02-04T03:00:46.206Z,45.95
2023-02-04T03:01:54.019Z,46.32
2023-02-04T03:03:00.235Z,46.39
2023-02-04T03:04:04.142Z,46.33
2023-02-04T03:05:07.429Z,46.31
2023-02-04T03:06:14.554Z,46.26
2023-02-04T03:07:18.799Z,46.50
2023-02-04T03:08:23.014Z,46.52
2023-02-04T03:09:27.628Z,46.75
2023-02-04T03:10:33.340Z,47.03
2023-02-04T03:11:35.960Z,47.20
2023-02-04T03:12:40.602Z,47.60
2023-02-04T03:13:43.724Z,47.31
2023-02-04T03:14:47.825Z,47.34
2023-02-04T03:15:50.850Z,47.67
2023-02-04T03:16:56.283Z,47.04
2023-02-04T03:18:00.607Z,46.88
2023-02-04T03:19:06.467Z,47.16
2023-02-04T03:20:10.903Z,47.37
2023-02-04T03:21:15.121Z,47.54
2023-02-04T03:22:18.427Z,47.99
2023-02-04T03:23:22.292Z,47.67
2023-02-04T03:24:26.122Z,47.69
2023-02-04T03:25:29.744Z,47.89
2023-02-04T03:26:34.601Z,48.04
2023-02-04T03:27:38.642Z,47.71
2023-02-04T03:28:43.168Z,48.14
2023-02-04T03:29:47.663Z,47.60
2023-02-04T03:30:54.046Z,48.54
2023-02-04T03:32:00.328Z,47.37
2023-02-04T03:33:03.018Z,47.83
2023-02-04T03:34:07.583Z,47.23
2023-02-04T03:35:10.574Z,47.63
2023-02-04T03:36:14.696Z,47.90
2023-02-04T03:37:17.473Z,48.59
2023-02-04T03:38:21.219Z,48.44
2023-02-04T03:39:24.245Z,48.78
2023-02-04T03:40:30.412Z,48.94
2023-02-04T03:41:34.696Z,49.00
2023-02-04T03:42:38.509Z,49.28
2023-02-04T03:43:40.986Z,48.95
2023-02-04T03:44:44.478Z,49.57
2023-02-04T03:45:47.450Z,49.74
2023-02-04T03:46:55.624Z,49.82
2023-02-04T03:47:58.267Z,50.11
2023-02-04T03:49:01.809Z,50.13
2023-02-04T03:50:05.334Z,50.18
2023-02-04T03:51:08.988Z,50.12
2023-02-04T03:52:11.623Z,49.71
2023-02-04T03:53:15.086Z,49.27
2023-02-04T03:54:18.554Z,48.96
2023-02-04T03:55:22.264Z,49.21
2023-02-04T03:56:24.826Z,48.94
2023-02-04T03:57:29.890Z,49.73
2023-02-04T03:58:32.335Z,48.73
2023-02-04T03:59:36.265Z,49.54
2023-02-04T04:00:38.985Z,48.93
2023-02-04T04:01:43.493Z,48.89
2023-02-04T04:02:46.101Z,48.27
2023-02-04T04:03:49.697Z,48.45
2023-02-04T04:04:54.045Z,48.70
2023-02-04T04:05:57.442Z,49.40
2023-02-04T04:07:00.280Z,49.12
2023-02-04T04:08:03.866Z,49.28
2023-02-04T04:09:06.628Z,48.67
2023-02-04T04:10:11.074Z,48.91
2023-02-04T04:11:14.454Z,47.89
2023-02-04T04:12:17.876Z,48.04
2023-02-04T04:13:22.170Z,49.17
2023-02-04T04:14:25.823Z,48.29
2023-02-04T04:15:28.267Z,48.14
2023-02-04T04:16:31.875Z,46.27
2023-02-04T04:17:34.703Z,45.45
2023-02-04T04:18:38.335Z,45.58
2023-02-04T04:19:40.755Z,45.74
2023-02-04T04:20:44.303Z,45.47
2023-02-04T04:21:47.321Z,45.28
2023-02-04T04:22:50.990Z,45.48
2023-02-04T04:23:53.325Z,44.90
2023-02-04T04:24:56.982Z,45.12
2023-02-04T04:25:59.857Z,45.71
2023-02-04T04:27:03.459Z,46.00
2023-02-04T04:28:06.009Z,46.33
2023-02-04T04:29:10.847Z,46.64
2023-02-04T04:30:13.190Z,47.80
2023-02-04T04:31:17.128Z,46.66
2023-02-04T04:32:19.490Z,46.99
2023-02-04T04:33:23.465Z,46.98
2023-02-04T04:34:26.483Z,45.88
2023-02-04T04:35:30.029Z,46.18
2023-02-04T04:36:33.669Z,44.64
2023-02-04T04:37:36.072Z,46.39
2023-02-04T04:38:39.582Z,44.07
2023-02-04T04:39:42.633Z,43.47
2023-02-04T04:40:46.791Z,42.98
2023-02-04T04:41:49.541Z,43.09
2023-02-04T04:42:52.954Z,44.24
2023-02-04T04:43:55.234Z,44.78
2023-02-04T04:45:00.236Z,45.04
2023-02-04T04:46:02.447Z,43.94
2023-02-04T04:47:06.029Z,43.56
2023-02-04T04:48:08.764Z,43.85
2023-02-04T04:49:12.236Z,44.18
2023-02-04T04:50:14.798Z,45.60
2023-02-04T04:51:18.326Z,43.56
2023-02-04T04:52:20.923Z,43.43
2023-02-04T04:53:24.820Z,43.94
2023-02-04T04:54:27.318Z,44.39
2023-02-04T04:55:30.876Z,42.02
2023-02-04T04:56:33.671Z,42.43
2023-02-04T04:57:37.068Z,42.31
2023-02-04T04:58:39.808Z,42.73
2023-02-04T04:59:43.542Z,41.45
2023-02-04T05:00:48.379Z,40.97
2023-02-04T05:01:51.942Z,41.51
2023-02-04T05:02:54.468Z,41.64
2023-02-04T05:03:58.104Z,40.94
2023-02-04T05:05:01.114Z,42.50
2023-02-04T05:06:05.078Z,40.59
2023-02-04T05:07:08.039Z,41.32
2023-02-04T05:08:14.218Z,41.59
2023-02-04T05:09:17.609Z,41.90
2023-02-04T05:10:21.978Z,42.72
2023-02-04T05:11:24.923Z,41.54
2023-02-04T05:12:28.880Z,40.88
2023-02-04T05:13:31.461Z,41.01
2023-02-04T05:14:35.404Z,41.17
2023-02-04T05:15:38.372Z,38.94
2023-02-04T05:16:43.588Z,39.90
2023-02-04T05:17:46.428Z,40.44
2023-02-04T05:18:50.139Z,40.24
2023-02-04T05:19:52.636Z,41.85
2023-02-04T05:20:56.222Z,40.86
2023-02-04T05:22:01.679Z,39.52
2023-02-04T05:23:05.940Z,40.48
2023-02-04T05:24:08.531Z,39.33
2023-02-04T05:25:12.746Z,39.90
2023-02-04T05:26:29.157Z,39.42
2023-02-04T05:27:33.907Z,39.34
2023-02-04T05:28:36.392Z,41.25
2023-02-04T05:29:40.327Z,39.77
2023-02-04T05:30:42.841Z,39.10
2023-02-04T05:31:48.142Z,39.06
2023-02-04T05:32:50.835Z,38.63
2023-02-04T05:33:54.628Z,39.09
2023-02-04T05:34:57.484Z,38.62
2023-02-04T05:36:01.610Z,38.93
2023-02-04T05:37:04.589Z,38.88
2023-02-04T05:38:08.236Z,39.13
2023-02-04T05:39:10.733Z,39.00
2023-02-04T05:40:14.604Z,38.95
2023-02-04T05:41:17.555Z,39.15
2023-02-04T05:42:21.260Z,40.08
2023-02-04T05:43:24.137Z,38.83
2023-02-04T05:44:27.860Z,38.62
2023-02-04T05:45:30.656Z,38.34
2023-02-04T05:46:34.338Z,38.59
2023-02-04T05:47:38.478Z,38.86
2023-02-04T05:48:42.606Z,38.14
2023-02-04T05:49:45.064Z,39.27
2023-02-04T05:50:48.983Z,39.24
2023-02-04T05:51:52.087Z,38.55
2023-02-04T05:52:56.662Z,38.33
2023-02-04T05:53:59.750Z,37.45
2023-02-04T05:55:03.543Z,38.70
2023-02-04T05:56:06.394Z,37.86
2023-02-04T05:57:10.096Z,37.25
2023-02-04T05:58:13.296Z,39.11
2023-02-04T05:59:17.154Z,36.94
2023-02-04T06:00:20.255Z,37.14
2023-02-04T06:01:24.259Z,37.66
2023-02-04T06:02:26.914Z,37.52
2023-02-04T06:03:32.913Z,38.42
2023-02-04T06:04:35.648Z,37.82
2023-02-04T06:05:39.385Z,37.21
2023-02-04T06:06:42.252Z,38.21
2023-02-04T06:07:45.884Z,36.57
2023-02-04T06:08:48.623Z,36.35
2023-02-04T06:09:52.143Z,37.05
2023-02-04T06:10:54.589Z,36.97
2023-02-04T06:11:58.341Z,36.56
2023-02-04T06:13:00.922Z,37.26
2023-02-04T06:14:04.653Z,37.29
2023-02-04T06:15:08.302Z,38.16
2023-02-04T06:16:12.746Z,37.16
2023-02-04T06:17:17.398Z,37.46
2023-02-04T06:18:21.448Z,37.68
2023-02-04T06:19:26.515Z,37.16
2023-02-04T06:20:29.049Z,36.89
2023-02-04T06:21:32.627Z,37.58
2023-02-04T06:22:35.101Z,37.48
2023-02-04T06:23:38.713Z,38.72
2023-02-04T06:24:41.286Z,38.28
2023-02-04T06:25:44.989Z,35.99
2023-02-04T06:26:48.014Z,36.32
2023-02-04T06:27:52.071Z,36.30
2023-02-04T06:28:55.060Z,36.74
2023-02-04T06:29:58.898Z,37.77
2023-02-04T06:31:01.539Z,37.53
2023-02-04T06:32:05.760Z,38.54
2023-02-04T06:33:08.449Z,38.70
2023-02-04T06:34:11.955Z,38.01
2023-02-04T06:35:16.713Z,38.11
2023-02-04T06:36:20.034Z,38.16
2023-02-04T06:37:24.317Z,37.98
2023-02-04T06:38:27.834Z,37.31
2023-02-04T06:39:30.474Z,37.97
2023-02-04T06:40:34.564Z,39.57
2023-02-04T06:41:37.344Z,38.28
2023-02-04T06:42:41.183Z,38.12
2023-02-04T06:43:43.436Z,37.99
2023-02-04T06:44:47.298Z,37.89
2023-02-04T06:45:51.121Z,38.32
2023-02-04T06:46:54.820Z,38.25
2023-02-04T06:47:57.293Z,37.21
2023-02-04T06:49:00.767Z,36.87
2023-02-04T06:50:03.421Z,37.19
2023-02-04T06:51:08.796Z,36.30
2023-02-04T06:52:11.881Z,37.67
2023-02-04T06:53:15.328Z,36.44
2023-02-04T06:54:17.803Z,35.87
2023-02-04T06:55:21.225Z,36.72
2023-02-04T06:56:23.799Z,35.73
2023-02-04T06:57:27.305Z,35.64
2023-02-04T06:58:29.955Z,35.78
2023-02-04T06:59:33.734Z,37.13
2023-02-04T07:00:37.579Z,35.99
2023-02-04T07:01:40.208Z,35.71
2023-02-04T07:02:44.128Z,35.53
2023-02-04T07:03:47.425Z,34.70
2023-02-04T07:04:51.820Z,34.55
2023-02-04T07:05:54.565Z,36.25
2023-02-04T07:06:59.684Z,38.06
2023-02-04T07:08:02.358Z,38.76
2023-02-04T07:09:05.994Z,39.21
2023-02-04T07:10:09.013Z,40.23
2023-02-04T07:11:12.584Z,41.37
2023-02-04T07:12:16.457Z,41.78
2023-02-04T07:13:20.304Z,41.61
2023-02-04T07:14:22.700Z,41.43
2023-02-04T07:15:26.411Z,40.05
2023-02-04T07:16:28.824Z,39.69
2023-02-04T07:17:32.516Z,39.36
2023-02-04T07:18:34.884Z,39.38
2023-02-04T07:19:38.948Z,40.20
2023-02-04T07:20:41.548Z,39.28
2023-02-04T07:21:45.882Z,39.11
2023-02-04T07:22:49.686Z,37.37
2023-02-04T07:23:53.136Z,38.61
2023-02-04T07:24:55.491Z,37.28
2023-02-04T07:25:59.678Z,38.14
2023-02-04T07:27:02.753Z,38.00
2023-02-04T07:28:06.963Z,37.76
2023-02-04T07:29:17.333Z,37.79
2023-02-04T07:30:21.255Z,37.61
2023-02-04T07:31:23.815Z,38.69
2023-02-04T07:32:28.008Z,37.54
2023-02-04T07:33:30.977Z,35.81
2023-02-04T07:34:34.504Z,34.98
2023-02-04T07:35:38.220Z,35.94
2023-02-04T07:36:41.757Z,35.39
2023-02-04T07:37:44.357Z,35.69
2023-02-04T07:38:49.219Z,36.31
2023-02-04T07:39:51.589Z,37.26
2023-02-04T07:40:55.082Z,37.01
2023-02-04T07:41:58.144Z,37.41
2023-02-04T07:43:01.553Z,37.43
2023-02-04T07:44:04.884Z,37.37
2023-02-04T07:45:09.356Z,37.71
2023-02-04T07:46:12.001Z,37.40
2023-02-04T07:47:15.969Z,37.65
2023-02-04T07:48:18.448Z,37.40
2023-02-04T07:49:22.099Z,38.23
2023-02-04T07:50:24.831Z,37.25
2023-02-04T07:51:28.431Z,37.27
2023-02-04T07:52:31.158Z,38.90
2023-02-04T07:53:34.956Z,39.35
2023-02-04T07:54:39.330Z,43.05
2023-02-04T07:55:42.824Z,41.66
2023-02-04T07:56:45.110Z,41.49
2023-02-04T07:57:48.783Z,40.50
2023-02-04T07:58:51.475Z,40.25
2023-02-04T07:59:55.002Z,40.96
2023-02-04T08:00:57.370Z,40.46
2023-02-04T08:02:01.987Z,39.84
2023-02-04T08:03:04.694Z,39.65
2023-02-04T08:04:08.765Z,37.92
2023-02-04T08:05:11.573Z,36.35
2023-02-04T08:06:16.016Z,36.03
2023-02-04T08:07:18.627Z,36.99
2023-02-04T08:08:22.222Z,36.91
2023-02-04T08:09:27.252Z,38.57
2023-02-04T08:10:32.738Z,38.04
2023-02-04T08:11:35.269Z,37.52
2023-02-04T08:12:39.413Z,37.13
2023-02-04T08:13:41.932Z,34.23
2023-02-04T08:14:45.309Z,33.77
2023-02-04T08:15:47.881Z,34.57
2023-02-04T08:16:51.472Z,34.49
2023-02-04T08:17:53.791Z,34.43
2023-02-04T08:18:57.613Z,34.85
2023-02-04T08:19:59.972Z,34.90
2023-02-04T08:21:05.072Z,35.13
2023-02-04T08:22:08.736Z,35.08
2023-02-04T08:23:11.488Z,35.52
2023-02-04T08:24:16.585Z,35.83
2023-02-04T08:25:19.264Z,35.19
2023-02-04T08:26:24.232Z,36.08
2023-02-04T08:27:26.498Z,35.90
2023-02-04T08:28:30.460Z,36.32
2023-02-04T08:29:33.016Z,36.04
2023-02-04T08:30:36.387Z,35.15
2023-02-04T08:31:40.861Z,34.46
2023-02-04T08:32:44.760Z,34.26
2023-02-04T08:33:48.173Z,34.22
2023-02-04T08:34:50.473Z,34.34
2023-02-04T08:35:54.119Z,34.27
2023-02-04T08:36:57.836Z,34.07
2023-02-04T08:38:00.427Z,33.43
2023-02-04T08:39:04.838Z,33.54
2023-02-04T08:40:08.347Z,33.29
2023-02-04T08:41:12.543Z,33.20
2023-02-04T08:42:17.024Z,33.74
2023-02-04T08:43:20.884Z,33.91
2023-02-04T08:44:23.555Z,34.86
2023-02-04T08:45:27.323Z,36.10
2023-02-04T08:46:29.893Z,37.63
2023-02-04T08:47:33.687Z,38.06
2023-02-04T08:48:36.288Z,37.84
2023-02-04T08:49:39.801Z,37.40
2023-02-04T08:50:43.361Z,37.07
2023-02-04T08:51:45.780Z,36.75
2023-02-04T08:52:49.445Z,36.81
2023-02-04T08:53:51.829Z,37.48
2023-02-04T08:54:55.739Z,37.09
2023-02-04T08:55:58.404Z,37.23
2023-02-04T08:57:03.112Z,36.22
2023-02-04T08:58:07.360Z,36.58
2023-02-04T08:59:10.959Z,36.72
2023-02-04T09:00:14.870Z,36.93
2023-02-04T09:01:18.543Z,37.44
2023-02-04T09:02:21.264Z,37.86
2023-02-04T09:03:24.997Z,36.75
2023-02-04T09:04:28.530Z,37.25
2023-02-04T09:05:32.360Z,36.42
2023-02-04T09:06:35.100Z,35.68
2023-02-04T09:07:39.090Z,34.52
2023-02-04T09:08:41.317Z,32.87
2023-02-04T09:09:44.878Z,32.15
2023-02-04T09:10:47.400Z,31.60
2023-02-04T09:11:51.267Z,33.00
2023-02-04T09:12:56.248Z,32.65
2023-02-04T09:14:00.204Z,32.68
2023-02-04T09:15:04.236Z,32.53
2023-02-04T09:16:08.260Z,33.65
2023-02-04T09:17:10.579Z,33.68
2023-02-04T09:18:17.208Z,33.23
2023-02-04T09:19:25.397Z,33.43
2023-02-04T09:20:29.341Z,34.26
2023-02-04T09:21:33.042Z,34.02
2023-02-04T09:22:37.925Z,34.93
2023-02-04T09:23:41.833Z,34.53
2023-02-04T09:24:44.163Z,35.12
2023-02-04T09:25:48.067Z,36.07
2023-02-04T09:26:51.504Z,35.30
2023-02-04T09:27:54.023Z,35.61
2023-02-04T09:28:57.693Z,35.75
2023-02-04T09:30:01.653Z,36.01
2023-02-04T09:31:06.581Z,35.82
2023-02-04T09:32:10.234Z,35.71
2023-02-04T09:33:14.065Z,35.71
2023-02-04T09:34:17.505Z,35.46
2023-02-04T09:35:20.032Z,34.89
2023-02-04T09:36:28.609Z,33.59
2023-02-04T09:37:31.187Z,33.50
2023-02-04T09:38:35.216Z,32.82
2023-02-04T09:39:39.040Z,33.38
2023-02-04T09:40:44.881Z,32.87
2023-02-04T09:41:48.983Z,33.26
2023-02-04T09:42:52.638Z,33.38
2023-02-04T09:43:56.300Z,33.53
2023-02-04T09:45:01.489Z,33.58
2023-02-04T09:46:06.672Z,33.81
2023-02-04T09:47:15.797Z,33.37
2023-02-04T09:48:18.995Z,33.04
2023-02-04T09:49:22.826Z,32.74
2023-02-04T09:50:27.580Z,32.81
2023-02-04T09:51:34.636Z,33.80
2023-02-04T09:52:37.295Z,34.57
2023-02-04T09:53:41.403Z,33.55
2023-02-04T09:54:45.975Z,33.33
2023-02-04T09:55:51.220Z,34.35
2023-02-04T09:56:55.570Z,34.10
2023-02-04T09:57:58.471Z,34.28
2023-02-04T09:59:02.189Z,33.76
2023-02-04T10:00:20.924Z,34.30
2023-02-04T10:01:26.064Z,35.11
2023-02-04T10:02:28.658Z,33.93
2023-02-04T10:03:32.783Z,32.47
2023-02-04T10:04:37.124Z,30.99
2023-02-04T10:05:40.861Z,29.36
2023-02-04T10:06:45.554Z,28.76
2023-02-04T10:07:48.268Z,28.67
2023-02-04T10:08:52.946Z,27.86
2023-02-04T10:09:55.938Z,27.18
2023-02-04T10:10:59.384Z,26.30
2023-02-04T10:12:04.061Z,25.85
2023-02-04T10:13:08.790Z,25.70
2023-02-04T10:14:16.568Z,24.80
2023-02-04T10:15:20.483Z,24.40
2023-02-04T10:16:30.249Z,24.31
2023-02-04T10:17:32.810Z,23.96
2023-02-04T10:18:38.175Z,23.67
2023-02-04T10:19:42.225Z,24.36
2023-02-04T10:20:44.716Z,24.71
2023-02-04T10:21:48.994Z,25.03
2023-02-04T10:22:54.260Z,25.73
2023-02-04T10:23:59.049Z,25.90
2023-02-04T10:25:01.917Z,26.75
2023-02-04T10:26:05.915Z,27.28
2023-02-04T10:27:11.066Z,26.90
2023-02-04T10:28:14.448Z,26.42
2023-02-04T10:29:18.998Z,27.61
2023-02-04T10:30:25.373Z,27.77
2023-02-04T10:31:36.161Z,27.80
2023-02-04T10:32:39.535Z,28.61
2023-02-04T10:33:42.060Z,28.79
2023-02-04T10:34:45.643Z,27.95
2023-02-04T10:35:51.513Z,27.31
2023-02-04T10:36:57.868Z,27.25
2023-02-04T10:38:06.878Z,26.69
2023-02-04T10:39:14.928Z,26.99
2023-02-04T10:40:29.460Z,26.95
2023-02-04T10:41:33.570Z,27.34
2023-02-04T10:42:36.776Z,27.78
2023-02-04T10:43:40.226Z,28.97
2023-02-04T10:44:47.831Z,31.00
2023-02-04T10:45:58.223Z,30.62
2023-02-04T10:47:03.930Z,31.41
2023-02-04T10:48:09.119Z,31.89
2023-02-04T10:49:20.219Z,30.94
2023-02-04T10:50:26.122Z,29.72
2023-02-04T10:51:28.876Z,30.39
2023-02-04T10:52:37.482Z,29.27
2023-02-04T10:53:58.604Z,29.62
2023-02-04T10:55:02.948Z,29.62
2023-02-04T10:56:08.530Z,30.23
2023-02-04T10:57:21.493Z,30.76
2023-02-04T10:58:29.391Z,31.69
2023-02-04T10:59:32.079Z,31.91
2023-02-04T11:00:35.739Z,32.85
2023-02-04T11:01:38.382Z,32.42
2023-02-04T11:02:50.441Z,31.37
2023-02-04T11:03:54.121Z,31.55
2023-02-04T11:04:57.741Z,30.79
2023-02-04T11:06:01.243Z,29.60
2023-02-04T11:07:05.100Z,28.46
2023-02-04T11:08:21.183Z,26.51
2023-02-04T11:09:25.803Z,24.25
2023-02-04T11:10:31.948Z,22.64
2023-02-04T11:11:35.695Z,22.11
2023-02-04T11:12:40.686Z,23.13
2023-02-04T11:13:45.368Z,23.70
2023-02-04T11:14:55.827Z,24.78
2023-02-04T11:16:11.863Z,25.89
2023-02-04T11:17:21.566Z,27.35
2023-02-04T11:18:34.091Z,27.90
2023-02-04T11:19:38.810Z,29.40
2023-02-04T11:20:42.726Z,29.45
2023-02-04T11:21:47.713Z,29.39
2023-02-04T11:22:54.032Z,28.27
2023-02-04T11:24:22.057Z,29.56
2023-02-04T11:25:35.231Z,30.26
2023-02-04T11:26:41.387Z,30.95
2023-02-04T11:27:44.363Z,34.59
2023-02-04T11:28:51.396Z,35.51
2023-02-04T11:30:08.366Z,34.84
2023-02-04T11:31:16.997Z,35.12
2023-02-04T11:32:33.705Z,33.21
2023-02-04T11:33:41.532Z,32.03
2023-02-04T11:34:51.467Z,32.10
2023-02-04T11:36:07.226Z,31.08
2023-02-04T11:37:20.400Z,28.55
2023-02-04T11:38:26.533Z,27.11
2023-02-04T11:39:35.860Z,30.33
2023-02-04T11:40:40.844Z,32.71
2023-02-04T11:41:45.936Z,29.23
2023-02-04T11:42:50.757Z,31.15
2023-02-04T11:43:56.382Z,31.92
2023-02-04T11:45:02.076Z,30.07
2023-02-04T11:46:12.836Z,30.71
2023-02-04T11:47:15.255Z,30.80
2023-02-04T11:48:21.545Z,29.97
2023-02-04T11:49:27.274Z,27.98
2023-02-04T11:50:32.657Z,26.44
2023-02-04T11:51:36.644Z,28.70
2023-02-04T11:52:39.235Z,29.02
2023-02-04T11:53:43.641Z,28.23
2023-02-04T11:54:53.849Z,28.57
2023-02-04T11:55:57.119Z,29.12
2023-02-04T11:57:01.498Z,28.56
2023-02-04T11:58:07.535Z,28.56
2023-02-04T11:59:12.500Z,28.75
2023-02-04T12:00:18.351Z,28.43
2023-02-04T12:01:25.130Z,28.22
2023-02-04T12:02:27.640Z,28.10
2023-02-04T12:03:34.478Z,29.13
2023-02-04T12:04:38.778Z,29.15
2023-02-04T12:05:44.482Z,29.16
2023-02-04T12:06:58.378Z,29.45
2023-02-04T12:08:12.036Z,29.77
2023-02-04T12:09:25.365Z,30.63
2023-02-04T12:10:34.660Z,31.43
2023-02-04T12:11:38.337Z,31.39
2023-02-04T12:12:45.252Z,32.34
2023-02-04T12:13:50.683Z,32.84
2023-02-04T12:15:06.362Z,31.81
2023-02-04T12:16:08.963Z,32.51
2023-02-04T12:17:18.473Z,32.47
2023-02-04T12:18:21.137Z,30.69
2023-02-04T12:19:26.741Z,31.28
2023-02-04T12:20:32.849Z,30.98
2023-02-04T12:21:35.493Z,32.31
2023-02-04T12:22:38.934Z,31.20
2023-02-04T12:23:43.686Z,31.36
2023-02-04T12:24:46.217Z,32.37
2023-02-04T12:25:50.415Z,33.67
2023-02-04T12:26:54.352Z,33.60
2023-02-04T12:27:57.685Z,33.99
2023-02-04T12:29:03.416Z,35.58
2023-02-04T12:30:06.770Z,33.74
2023-02-04T12:31:10.517Z,32.46
2023-02-04T12:32:12.853Z,31.55
2023-02-04T12:33:16.551Z,31.30
2023-02-04T12:34:19.887Z,31.90
2023-02-04T12:35:23.599Z,30.61
2023-02-04T12:36:30.013Z,30.36
2023-02-04T12:37:33.447Z,30.72
2023-02-04T12:38:37.005Z,29.54
2023-02-04T12:39:39.608Z,30.86
2023-02-04T12:40:43.169Z,31.24
2023-02-04T12:41:47.081Z,28.48
2023-02-04T12:42:50.508Z,29.40
2023-02-04T12:43:55.829Z,29.82
2023-02-04T12:44:59.619Z,29.76
2023-02-04T12:46:03.935Z,30.12
2023-02-04T12:47:07.678Z,30.78
2023-02-04T12:48:11.513Z,31.84
2023-02-04T12:49:14.354Z,31.92
2023-02-04T12:50:22.741Z,31.05
2023-02-04T12:51:25.208Z,31.20
2023-02-04T12:52:31.072Z,32.23
2023-02-04T12:53:34.507Z,33.06
2023-02-04T12:54:38.473Z,32.47
2023-02-04T12:55:41.218Z,29.91
2023-02-04T12:56:44.658Z,30.12
2023-02-04T12:57:48.787Z,30.16
2023-02-04T12:58:51.458Z,29.77
2023-02-04T12:59:57.899Z,30.12
2023-02-04T13:01:03.863Z,29.80
2023-02-04T13:02:06.981Z,30.41
2023-02-04T13:03:10.487Z,31.35
2023-02-04T13:04:14.337Z,30.32
2023-02-04T13:05:17.439Z,31.09
2023-02-04T13:06:21.642Z,30.77
2023-02-04T13:07:24.367Z,31.39
2023-02-04T13:08:29.375Z,31.94
2023-02-04T13:09:31.860Z,32.14
2023-02-04T13:10:36.129Z,31.38
2023-02-04T13:11:39.651Z,30.42
2023-02-04T13:12:43.627Z,30.90
2023-02-04T13:13:46.672Z,31.52
2023-02-04T13:14:50.371Z,32.09
2023-02-04T13:15:53.055Z,33.47
2023-02-04T13:16:57.520Z,34.71
2023-02-04T13:18:00.101Z,34.18
2023-02-04T13:19:03.816Z,32.38
2023-02-04T13:20:07.486Z,31.87
2023-02-04T13:21:11.241Z,31.99
2023-02-04T13:22:15.085Z,30.52
2023-02-04T13:23:18.634Z,30.43
2023-02-04T13:24:23.566Z,28.90
2023-02-04T13:25:27.146Z,29.53
2023-02-04T13:26:31.170Z,29.01
2023-02-04T13:27:33.897Z,29.16
2023-02-04T13:28:37.448Z,30.05
2023-02-04T13:29:40.795Z,30.80
2023-02-04T13:30:44.589Z,31.39
2023-02-04T13:31:47.332Z,31.14
2023-02-04T13:32:51.461Z,31.03
2023-02-04T13:33:55.356Z,30.54
2023-02-04T13:34:57.850Z,30.63
2023-02-04T13:36:02.156Z,31.11
2023-02-04T13:37:06.023Z,31.23
2023-02-04T13:38:08.643Z,29.39
2023-02-04T13:39:12.392Z,28.78
2023-02-04T13:40:17.770Z,25.63
2023-02-04T13:41:21.479Z,24.46
2023-02-04T13:42:25.175Z,24.59
2023-02-04T13:43:27.968Z,23.66
2023-02-04T13:44:31.803Z,23.83
2023-02-04T13:45:35.915Z,22.27
2023-02-04T13:46:39.676Z,22.47
2023-02-04T13:47:42.161Z,19.78